Time;durP1;ratioP1;P1;durP2;ratioP2;P2;SDS_P1;SDS_P2;PMS_P1;PMS_P2;Temp;Humidity;BMP_temperature;BMP_pressure;BME280_temperature;BME280_humidity;BME280_pressure;Samples;Min_cycle;Max_cycle;Signal;HPM_P1;HPM_P2
2022/01/31 00:01:57;;;;;;;2.43;1.10;;;1.80;58.10;;;;;;6232287;28;20332;-62
2022/01/31 00:04:58;;;;;;;2.53;1.17;;;1.70;58.20;;;;;;6232760;28;20200;-62
2022/01/31 00:07:59;;;;;;;2.80;1.20;;;1.60;58.40;;;;;;6249002;28;20226;-62
2022/01/31 00:11:00;;;;;;;1.57;1.33;;;1.70;58.60;;;;;;6232656;28;20193;-62
2022/01/31 00:14:10;;;;;;;2.00;1.27;;;1.60;58.80;;;;;;6248077;28;20220;-62
2022/01/31 00:17:13;;;;;;;4.87;1.20;;;1.40;59.30;;;;;;6224180;28;20239;-62
2022/01/31 00:20:14;;;;;;;2.30;1.20;;;1.40;59.60;;;;;;6241038;28;20175;-61
2022/01/31 00:23:15;;;;;;;4.50;1.47;;;1.30;59.50;;;;;;6250081;28;20194;-61
2022/01/31 00:26:16;;;;;;;2.43;1.23;;;1.30;59.70;;;;;;6249211;28;20206;-61
2022/01/31 00:29:17;;;;;;;4.00;1.90;;;1.30;60.00;;;;;;6248242;28;20194;-60
2022/01/31 00:32:18;;;;;;;2.70;1.73;;;1.20;59.90;;;;;;6214918;28;20231;-60
2022/01/31 00:35:20;;;;;;;5.43;2.00;;;1.20;59.90;;;;;;6224162;28;20214;-60
2022/01/31 00:38:20;;;;;;;4.63;2.13;;;1.20;59.80;;;;;;6252166;28;20209;-59
2022/01/31 00:41:21;;;;;;;4.43;2.00;;;1.30;59.70;;;;;;6227181;28;20204;-59
2022/01/31 00:44:31;;;;;;;3.00;2.00;;;1.30;59.20;;;;;;6232424;28;20221;-59
2022/01/31 00:47:32;;;;;;;2.47;1.37;;;1.40;59.30;;;;;;6233642;28;20191;-59
2022/01/31 00:50:38;;;;;;;2.90;1.60;;;1.40;59.40;;;;;;6208410;28;20198;-62
2022/01/31 00:53:40;;;;;;;1.60;1.10;;;1.40;59.20;;;;;;6236323;28;20202;-62
2022/01/31 00:56:40;;;;;;;3.73;1.63;;;1.30;59.70;;;;;;6232115;28;20202;-62
2022/01/31 00:59:41;;;;;;;4.37;1.63;;;1.30;60.10;;;;;;6231734;28;20245;-62
2022/01/31 01:02:43;;;;;;;2.23;1.30;;;1.10;60.60;;;;;;6231908;28;20186;-62
2022/01/31 01:05:44;;;;;;;4.80;1.30;;;1.10;60.50;;;;;;6248598;28;20204;-62
2022/01/31 01:08:44;;;;;;;2.73;1.20;;;1.00;60.90;;;;;;6248230;28;20194;-62
2022/01/31 01:11:45;;;;;;;1.93;1.27;;;1.00;61.00;;;;;;6231571;28;20195;-62
2022/01/31 01:14:48;;;;;;;2.10;1.40;;;0.90;61.00;;;;;;6232144;28;20197;-62
2022/01/31 01:17:48;;;;;;;1.90;1.30;;;0.80;61.30;;;;;;6231726;28;20245;-62
2022/01/31 01:20:50;;;;;;;2.13;1.40;;;0.80;61.60;;;;;;6231811;28;20196;-62
2022/01/31 01:23:51;;;;;;;4.27;1.73;;;0.70;61.80;;;;;;6232183;28;20201;-61
2022/01/31 01:26:51;;;;;;;3.50;1.60;;;0.70;61.70;;;;;;6231354;28;20195;-61
2022/01/31 01:29:56;;;;;;;2.13;1.30;;;0.70;61.80;;;;;;6231988;28;20209;-60
2022/01/31 01:33:05;;;;;;;1.70;1.10;;;0.60;62.20;;;;;;6231811;28;20210;-60
2022/01/31 01:36:07;;;;;;;2.07;1.30;;;0.60;62.40;;;;;;6232715;28;20179;-60
2022/01/31 01:39:08;;;;;;;1.70;1.00;;;0.60;62.80;;;;;;6228376;28;20223;-60
2022/01/31 01:42:09;;;;;;;3.83;1.20;;;0.60;62.70;;;;;;6251543;28;20343;-59
2022/01/31 01:45:10;;;;;;;2.40;1.40;;;0.60;62.60;;;;;;6251730;28;20228;-59
2022/01/31 01:48:16;;;;;;;2.97;1.10;;;0.60;62.10;;;;;;6253893;28;20222;-59
2022/01/31 01:51:17;;;;;;;1.17;1.00;;;0.70;61.70;;;;;;6243961;28;20198;-59
2022/01/31 01:54:18;;;;;;;1.13;1.03;;;0.80;61.80;;;;;;6243468;28;20710;-60
2022/01/31 01:57:23;;;;;;;3.07;1.23;;;0.90;62.10;;;;;;6235308;28;20289;-59
2022/01/31 02:00:43;;;;;;;2.23;1.10;;;0.90;62.00;;;;;;6268022;28;20193;-59
2022/01/31 02:03:45;;;;;;;4.77;1.27;;;0.90;61.90;;;;;;6254511;28;20235;-62
2022/01/31 02:06:46;;;;;;;3.07;1.30;;;1.00;61.50;;;;;;6218842;28;20188;-62
2022/01/31 02:09:55;;;;;;;4.33;1.20;;;0.90;61.40;;;;;;6218594;28;20194;-62
2022/01/31 02:12:56;;;;;;;1.40;1.23;;;0.90;61.30;;;;;;6235263;28;20194;-62
2022/01/31 02:16:26;;;;;;;2.33;1.50;;;0.80;61.60;;;;;;6238286;28;20234;-62
2022/01/31 02:19:30;;;;;;;1.80;1.30;;;0.70;62.10;;;;;;6235736;28;20186;-62
2022/01/31 02:22:49;;;;;;;2.20;1.53;;;0.60;62.30;;;;;;6237188;28;20199;-62
2022/01/31 02:26:04;;;;;;;2.73;1.57;;;0.50;62.60;;;;;;6236513;28;20199;-62
2022/01/31 02:29:34;;;;;;;1.87;1.30;;;0.40;62.90;;;;;;6222487;28;20299;-62
2022/01/31 02:32:35;;;;;;;2.27;1.00;;;0.40;63.10;;;;;;6230016;28;20200;-62
2022/01/31 02:35:37;;;;;;;1.90;1.43;;;0.40;62.90;;;;;;6251266;28;20180;-62
2022/01/31 02:38:38;;;;;;;4.77;1.67;;;0.40;63.00;;;;;;6234433;28;20218;-61
2022/01/31 02:41:45;;;;;;;2.77;1.37;;;0.40;63.20;;;;;;6218792;28;20258;-61
2022/01/31 02:44:47;;;;;;;2.03;1.30;;;0.40;63.20;;;;;;6242681;28;20249;-61
2022/01/31 02:47:55;;;;;;;1.40;1.20;;;0.30;63.40;;;;;;6225230;28;20186;-61
2022/01/31 02:50:58;;;;;;;1.97;1.20;;;0.30;63.80;;;;;;6224577;28;20197;-61
2022/01/31 02:53:59;;;;;;;2.03;1.20;;;0.40;63.20;;;;;;6224080;28;20220;-61
2022/01/31 02:57:00;;;;;;;1.10;1.00;;;0.20;63.40;;;;;;6197696;28;20260;-61
2022/01/31 03:00:03;;;;;;;1.47;1.03;;;0.10;63.60;;;;;;6228073;28;20200;-61
2022/01/31 03:03:24;;;;;;;2.90;1.37;;;0.10;63.80;;;;;;6233706;28;20202;-61
2022/01/31 03:06:25;;;;;;;2.10;1.10;;;0.10;63.90;;;;;;6265628;28;20186;-61
2022/01/31 03:09:26;;;;;;;1.13;1.03;;;0.10;63.90;;;;;;6248829;28;20201;-61
2022/01/31 03:12:29;;;;;;;2.27;1.13;;;0.10;64.20;;;;;;6248869;28;20213;-61
2022/01/31 03:15:35;;;;;;;4.03;1.20;;;0.10;64.10;;;;;;6249535;28;20231;-62
2022/01/31 03:18:56;;;;;;;5.57;1.20;;;0.10;63.80;;;;;;6239520;28;20230;-62
2022/01/31 03:21:57;;;;;;;2.63;1.00;;;0.00;64.40;;;;;;6249110;28;20228;-62
2022/01/31 03:24:58;;;;;;;2.37;1.30;;;-3276.70;64.80;;;;;;6232647;28;20204;-62
2022/01/31 03:27:59;;;;;;;1.93;1.37;;;0.00;64.50;;;;;;6233340;28;20237;-62
2022/01/31 03:30:59;;;;;;;3.83;1.20;;;-3276.70;64.90;;;;;;6233094;28;20194;-61
2022/01/31 03:34:01;;;;;;;1.07;0.97;;;-3276.70;65.00;;;;;;6227631;28;20193;-62
2022/01/31 03:37:02;;;;;;;4.07;1.37;;;-3276.60;65.20;;;;;;6233115;28;20221;-62
2022/01/31 03:40:07;;;;;;;1.40;1.13;;;-3276.60;65.30;;;;;;6228636;28;20195;-61
2022/01/31 03:43:08;;;;;;;2.93;1.20;;;-3276.60;65.50;;;;;;6232482;28;20225;-61
2022/01/31 03:46:09;;;;;;;1.40;1.17;;;-3276.50;65.90;;;;;;6240562;28;20190;-60
2022/01/31 03:49:10;;;;;;;2.00;1.13;;;-3276.60;65.80;;;;;;6222335;28;20243;-61
2022/01/31 03:52:22;;;;;;;1.70;0.90;;;-3276.60;65.60;;;;;;6247985;28;20199;-61
2022/01/31 03:55:24;;;;;;;1.57;0.97;;;-3276.70;65.60;;;;;;6248499;28;20194;-60
2022/01/31 03:58:26;;;;;;;2.17;1.27;;;-3276.70;65.50;;;;;;6248346;28;20218;-60
2022/01/31 04:01:44;;;;;;;2.73;1.50;;;-3276.70;65.30;;;;;;6251503;28;20713;-60
2022/01/31 04:04:45;;;;;;;2.87;1.40;;;0.00;65.40;;;;;;6231998;28;20182;-62
2022/01/31 04:07:45;;;;;;;3.27;1.30;;;0.00;65.00;;;;;;6229509;28;20416;-60
2022/01/31 04:10:46;;;;;;;2.10;1.17;;;0.00;64.90;;;;;;6261773;28;20194;-60
2022/01/31 04:13:47;;;;;;;1.30;1.03;;;0.00;65.20;;;;;;6238840;28;20266;-60
2022/01/31 04:16:48;;;;;;;2.33;1.00;;;0.10;64.80;;;;;;6231186;28;20247;-60
2022/01/31 04:19:49;;;;;;;1.33;0.90;;;0.00;65.00;;;;;;6232596;28;20171;-60
2022/01/31 04:23:00;;;;;;;1.87;1.30;;;0.10;65.10;;;;;;6232614;28;20194;-60
2022/01/31 04:26:08;;;;;;;1.37;0.90;;;0.10;65.00;;;;;;6218141;28;20204;-60
2022/01/31 04:29:14;;;;;;;2.50;0.83;;;0.10;64.20;;;;;;6239608;28;20246;-60
2022/01/31 04:32:15;;;;;;;2.50;1.40;;;0.20;64.50;;;;;;6232017;28;20190;-60
2022/01/31 04:35:16;;;;;;;4.07;1.37;;;0.20;64.50;;;;;;6247097;28;20225;-60
2022/01/31 04:38:17;;;;;;;4.60;1.53;;;0.10;64.60;;;;;;6232228;28;20226;-60
2022/01/31 04:41:19;;;;;;;2.43;1.50;;;0.00;64.80;;;;;;6232073;28;20204;-60
2022/01/31 04:44:20;;;;;;;2.80;1.80;;;0.20;64.60;;;;;;6237066;28;20222;-60
2022/01/31 04:47:21;;;;;;;4.37;1.77;;;0.30;64.80;;;;;;6257286;28;20191;-60
2022/01/31 04:50:22;;;;;;;4.00;2.27;;;0.30;64.80;;;;;;6270316;28;20198;-60
2022/01/31 04:53:23;;;;;;;4.33;2.30;;;0.30;65.00;;;;;;6241393;28;20187;-59
2022/01/31 04:56:24;;;;;;;4.53;2.00;;;0.30;64.90;;;;;;6232050;28;20186;-60
2022/01/31 04:59:25;;;;;;;2.50;1.83;;;0.30;64.90;;;;;;6223878;28;20209;-60
2022/01/31 05:02:26;;;;;;;5.03;2.33;;;0.30;64.90;;;;;;6224660;28;20186;-60
2022/01/31 05:05:27;;;;;;;3.10;2.00;;;0.30;65.20;;;;;;6252267;28;20250;-60
2022/01/31 05:08:29;;;;;;;2.23;1.40;;;0.30;65.30;;;;;;6270154;28;20273;-60
2022/01/31 05:11:30;;;;;;;8.33;1.47;;;0.30;65.20;;;;;;6218430;28;20366;-59
2022/01/31 05:14:31;;;;;;;6.37;1.87;;;0.30;65.30;;;;;;6247956;28;20206;-59
2022/01/31 05:17:31;;;;;;;1.80;1.50;;;0.30;65.50;;;;;;6218285;28;20239;-60
2022/01/31 05:20:32;;;;;;;5.27;2.20;;;0.30;65.50;;;;;;6222316;28;20205;-60
2022/01/31 05:23:34;;;;;;;3.63;1.70;;;0.20;65.60;;;;;;6259902;28;20199;-60
2022/01/31 05:26:35;;;;;;;5.87;1.80;;;0.10;65.80;;;;;;6225002;28;20198;-60
2022/01/31 05:29:36;;;;;;;4.50;2.00;;;0.10;65.90;;;;;;6243402;28;20200;-60
2022/01/31 05:32:36;;;;;;;4.03;2.17;;;0.10;66.40;;;;;;6236515;28;20206;-60
2022/01/31 05:35:37;;;;;;;2.77;1.70;;;0.00;66.50;;;;;;6226949;28;20199;-60
2022/01/31 05:38:39;;;;;;;5.17;1.87;;;0.00;66.30;;;;;;6219607;28;20300;-60
2022/01/31 05:41:41;;;;;;;5.53;2.10;;;0.00;66.50;;;;;;6256636;28;20211;-60
2022/01/31 05:44:43;;;;;;;7.37;3.83;;;0.00;66.60;;;;;;6244193;28;20192;-60
2022/01/31 05:47:44;;;;;;;5.37;3.40;;;0.00;66.50;;;;;;6234599;28;20203;-60
2022/01/31 05:50:45;;;;;;;4.63;2.60;;;0.00;66.60;;;;;;6231266;28;20202;-60
2022/01/31 05:53:48;;;;;;;5.40;2.70;;;0.00;66.50;;;;;;6245347;28;20223;-60
2022/01/31 05:56:49;;;;;;;3.23;1.90;;;0.00;66.80;;;;;;6247180;28;20353;-61
2022/01/31 05:59:51;;;;;;;2.97;1.83;;;-3276.70;66.90;;;;;;6231926;28;20211;-60
2022/01/31 06:02:58;;;;;;;6.53;2.20;;;-3276.70;66.90;;;;;;6224909;28;20195;-60
2022/01/31 06:05:59;;;;;;;3.43;1.80;;;-3276.70;67.10;;;;;;6259952;28;20225;-60
2022/01/31 06:09:00;;;;;;;3.17;1.77;;;-3276.70;67.20;;;;;;6256166;28;20194;-60
2022/01/31 06:12:02;;;;;;;5.23;2.20;;;0.00;67.00;;;;;;6213040;28;20201;-61
2022/01/31 06:15:03;;;;;;;5.73;3.17;;;0.00;67.20;;;;;;6229126;28;20232;-60
2022/01/31 06:18:04;;;;;;;4.80;3.17;;;0.10;67.70;;;;;;6212608;28;20265;-60
2022/01/31 06:21:04;;;;;;;5.83;3.17;;;0.10;67.60;;;;;;6230580;28;20191;-60
2022/01/31 06:24:09;;;;;;;4.80;2.90;;;0.10;67.50;;;;;;6243455;28;20274;-60
2022/01/31 06:27:10;;;;;;;5.70;3.50;;;0.10;67.60;;;;;;6261670;28;20191;-60
2022/01/31 06:30:11;;;;;;;4.93;2.50;;;0.20;67.40;;;;;;6225756;28;20238;-60
2022/01/31 06:33:16;;;;;;;4.23;2.07;;;0.20;66.60;;;;;;6222169;28;20195;-59
2022/01/31 06:36:16;;;;;;;8.00;2.67;;;0.30;66.50;;;;;;6258406;28;20187;-59
2022/01/31 06:39:17;;;;;;;5.60;2.33;;;0.20;66.50;;;;;;6249310;28;20218;-59
2022/01/31 06:42:18;;;;;;;4.80;2.87;;;0.20;66.80;;;;;;6249273;28;20492;-58
2022/01/31 06:45:19;;;;;;;5.00;2.97;;;0.20;66.70;;;;;;6249912;28;20197;-58
2022/01/31 06:48:20;;;;;;;4.33;2.60;;;0.30;66.60;;;;;;6250959;28;20206;-59
2022/01/31 06:51:20;;;;;;;6.77;2.50;;;0.30;66.60;;;;;;6242944;28;20206;-59
2022/01/31 06:54:21;;;;;;;3.07;2.40;;;0.40;66.50;;;;;;6228088;28;20227;-59
2022/01/31 06:57:24;;;;;;;6.00;2.90;;;0.50;66.30;;;;;;6224039;28;20203;-59
2022/01/31 07:00:25;;;;;;;4.40;2.63;;;0.60;66.50;;;;;;6229463;28;20229;-59
2022/01/31 07:03:26;;;;;;;6.97;2.43;;;0.60;66.50;;;;;;6242578;28;20199;-59
2022/01/31 07:06:26;;;;;;;5.57;2.47;;;0.70;66.70;;;;;;6243171;28;20179;-59
2022/01/31 07:09:28;;;;;;;4.10;2.40;;;0.80;66.80;;;;;;6230994;28;20199;-59
2022/01/31 07:12:32;;;;;;;3.93;2.20;;;0.80;66.30;;;;;;6216999;28;20220;-59
2022/01/31 07:15:33;;;;;;;4.47;2.80;;;0.90;66.00;;;;;;6233158;28;20250;-59
2022/01/31 07:18:35;;;;;;;8.10;3.03;;;0.90;65.90;;;;;;6215219;28;20226;-59
2022/01/31 07:21:45;;;;;;;7.33;3.27;;;0.90;65.20;;;;;;6244899;28;20202;-59
2022/01/31 07:25:00;;;;;;;4.17;2.93;;;0.90;64.90;;;;;;6240339;28;20183;-59
2022/01/31 07:28:03;;;;;;;3.60;2.93;;;1.00;65.40;;;;;;6245158;28;20200;-59
2022/01/31 07:31:04;;;;;;;6.13;2.77;;;0.90;65.10;;;;;;6239319;28;20237;-59
2022/01/31 07:34:06;;;;;;;8.23;2.63;;;0.90;66.20;;;;;;6223307;28;20205;-59
2022/01/31 07:37:09;;;;;;;10.70;2.97;;;0.90;66.30;;;;;;6264461;28;20220;-59
2022/01/31 07:40:10;;;;;;;4.43;2.90;;;1.10;66.10;;;;;;6247436;28;20194;-59
2022/01/31 07:43:12;;;;;;;4.37;2.80;;;1.30;66.00;;;;;;6230010;28;20216;-59
2022/01/31 07:46:14;;;;;;;4.47;2.63;;;1.30;65.30;;;;;;6264073;28;20204;-59
2022/01/31 07:49:15;;;;;;;5.30;2.87;;;1.40;65.70;;;;;;6263044;28;20284;-59
2022/01/31 07:52:16;;;;;;;6.00;3.03;;;1.50;65.70;;;;;;6230663;28;20198;-59
2022/01/31 07:55:17;;;;;;;3.80;2.97;;;1.70;64.80;;;;;;6223456;28;20197;-59
2022/01/31 07:58:20;;;;;;;8.23;3.70;;;1.60;63.90;;;;;;6240058;28;20246;-59
2022/01/31 08:01:20;;;;;;;12.37;4.23;;;1.60;63.10;;;;;;6256998;28;20277;-57
2022/01/31 08:04:21;;;;;;;9.03;3.37;;;1.70;62.50;;;;;;6263607;28;20188;-58
2022/01/31 08:07:23;;;;;;;5.63;3.87;;;1.70;62.70;;;;;;6247587;28;20190;-59
2022/01/31 08:10:24;;;;;;;7.27;3.80;;;1.80;63.10;;;;;;6205292;28;20199;-59
2022/01/31 08:13:25;;;;;;;5.83;3.30;;;1.80;63.10;;;;;;6242623;28;20285;-59
2022/01/31 08:16:26;;;;;;;6.73;3.27;;;2.00;62.90;;;;;;6246059;28;20257;-59
2022/01/31 08:19:27;;;;;;;5.47;2.90;;;2.10;62.70;;;;;;6263389;28;20301;-59
2022/01/31 08:22:28;;;;;;;5.90;3.03;;;2.20;62.30;;;;;;6231317;28;20186;-59
2022/01/31 08:25:29;;;;;;;6.93;2.77;;;2.30;62.20;;;;;;6212520;28;20190;-59
2022/01/31 08:28:41;;;;;;;4.10;2.80;;;2.40;61.90;;;;;;6206225;28;20195;-59
2022/01/31 08:31:42;;;;;;;3.23;2.93;;;2.60;62.00;;;;;;6239365;28;20187;-59
2022/01/31 08:38:02;;;;;;;4.73;3.10;;;2.90;61.20;;;;;;6222206;28;20223;-59
2022/01/31 08:41:04;;;;;;;12.53;5.23;;;2.90;61.40;;;;;;6229639;28;20239;-59
2022/01/31 08:44:05;;;;;;;8.03;4.70;;;2.90;61.30;;;;;;6255361;28;20190;-59
2022/01/31 08:47:06;;;;;;;7.53;4.20;;;3.00;60.80;;;;;;6223658;28;20246;-59
2022/01/31 08:50:09;;;;;;;9.33;3.37;;;3.10;60.50;;;;;;6233003;28;20202;-59
2022/01/31 08:53:10;;;;;;;7.07;3.50;;;3.10;60.30;;;;;;6211302;28;20193;-59
2022/01/31 08:56:12;;;;;;;8.90;5.00;;;3.10;60.20;;;;;;6243636;28;20230;-59
2022/01/31 08:59:19;;;;;;;11.43;5.43;;;3.10;60.00;;;;;;6219212;28;20250;-59
2022/01/31 09:02:29;;;;;;;8.73;5.27;;;3.10;58.90;;;;;;6211229;28;20195;-59
2022/01/31 09:05:30;;;;;;;9.47;4.97;;;3.10;59.50;;;;;;6216457;28;20195;-59
2022/01/31 09:08:31;;;;;;;8.63;5.23;;;3.00;60.20;;;;;;6250416;28;20530;-59
2022/01/31 09:11:32;;;;;;;6.80;3.97;;;3.00;60.20;;;;;;6266476;28;20206;-59
2022/01/31 09:14:33;;;;;;;8.63;3.80;;;3.00;59.90;;;;;;6235008;28;20202;-59
2022/01/31 09:17:35;;;;;;;5.47;3.13;;;3.00;60.00;;;;;;6221509;28;20242;-59
2022/01/31 09:20:36;;;;;;;5.53;3.13;;;3.00;59.60;;;;;;6243609;28;20244;-59
2022/01/31 09:23:38;;;;;;;4.97;3.87;;;3.00;58.60;;;;;;6215101;28;20293;-59
2022/01/31 09:26:38;;;;;;;7.40;3.77;;;3.20;59.00;;;;;;6210571;28;20203;-59
2022/01/31 09:29:40;;;;;;;5.37;3.00;;;3.20;58.70;;;;;;6256081;28;20191;-59
2022/01/31 09:32:41;;;;;;;4.57;3.30;;;3.30;58.90;;;;;;6246310;28;20191;-59
2022/01/31 09:35:43;;;;;;;5.20;3.50;;;3.40;59.10;;;;;;6249938;28;20201;-59
2022/01/31 09:38:43;;;;;;;6.17;2.57;;;3.50;59.00;;;;;;6266583;28;20217;-59
2022/01/31 09:41:47;;;;;;;5.90;3.10;;;3.50;58.10;;;;;;6251302;28;20244;-59
2022/01/31 09:51:20;;;;;;;8.37;3.03;;;3.80;58.40;;;;;;6242479;28;20198;-59
2022/01/31 09:54:24;;;;;;;4.73;2.50;;;3.80;58.20;;;;;;6225971;28;20215;-59
2022/01/31 09:57:25;;;;;;;4.30;2.60;;;3.80;58.00;;;;;;6228910;28;20248;-59
2022/01/31 10:00:33;;;;;;;8.90;2.33;;;3.80;56.90;;;;;;6233961;28;20190;-59
2022/01/31 10:04:16;;;;;;;4.17;2.00;;;3.90;57.10;;;;;;6219568;28;20253;-59
2022/01/31 10:07:17;;;;;;;6.60;2.40;;;4.00;57.60;;;;;;6209089;28;20195;-59
2022/01/31 10:10:22;;;;;;;2.33;1.83;;;4.00;57.40;;;;;;6250538;28;20204;-59
2022/01/31 10:16:54;;;;;;;4.33;3.70;;;4.00;56.10;;;;;;6249823;28;20250;-59
2022/01/31 10:20:00;;;;;;;5.57;2.50;;;4.10;55.70;;;;;;6233871;28;20181;-59
2022/01/31 10:23:10;;;;;;;4.20;2.90;;;4.20;55.80;;;;;;6232998;28;20240;-59
2022/01/31 10:26:32;;;;;;;6.67;2.60;;;4.20;55.00;;;;;;6208721;28;20218;-59
2022/01/31 10:29:33;;;;;;;3.97;3.40;;;4.30;54.70;;;;;;6243858;28;20260;-59
2022/01/31 10:32:37;;;;;;;5.63;3.10;;;4.30;54.60;;;;;;6250041;28;20186;-59
2022/01/31 10:35:39;;;;;;;7.33;3.43;;;4.40;54.50;;;;;;6238189;28;20205;-59
2022/01/31 10:38:43;;;;;;;5.47;2.70;;;4.50;54.80;;;;;;6225103;28;20227;-59
2022/01/31 10:52:10;;;;;;;6.43;2.43;;;4.60;54.10;;;;;;6226527;28;20199;-59
2022/01/31 10:55:15;;;;;;;3.77;2.30;;;4.80;54.20;;;;;;6224407;28;20191;-59
2022/01/31 10:58:16;;;;;;;5.17;3.07;;;4.80;54.50;;;;;;6224734;28;20207;-59
2022/01/31 11:01:17;;;;;;;4.47;2.80;;;4.90;54.50;;;;;;6242133;28;20202;-59
2022/01/31 11:04:18;;;;;;;8.17;2.57;;;5.10;54.10;;;;;;6241103;28;20264;-59
2022/01/31 11:07:22;;;;;;;5.03;2.17;;;5.30;54.10;;;;;;6224458;28;20206;-59
2022/01/31 11:10:29;;;;;;;6.20;3.00;;;5.40;54.00;;;;;;6253540;28;20195;-59
2022/01/31 11:13:35;;;;;;;7.70;2.80;;;5.50;52.80;;;;;;6204156;28;20203;-59
2022/01/31 11:16:38;;;;;;;4.10;3.00;;;5.60;53.10;;;;;;6240472;28;20239;-59
2022/01/31 11:19:41;;;;;;;8.53;3.40;;;5.80;53.00;;;;;;6240628;28;20298;-59
2022/01/31 11:22:43;;;;;;;15.77;5.23;;;6.00;53.40;;;;;;6226304;28;20192;-59
2022/01/31 11:25:50;;;;;;;17.27;8.23;;;6.30;51.30;;;;;;6232259;28;20187;-59
2022/01/31 11:28:53;;;;;;;21.67;9.93;;;6.30;51.30;;;;;;6247794;28;20289;-59
2022/01/31 11:31:54;;;;;;;15.53;8.97;;;6.40;51.50;;;;;;6239481;28;20257;-59
2022/01/31 11:34:56;;;;;;;24.43;9.70;;;6.40;51.00;;;;;;6227842;28;20221;-59
2022/01/31 11:37:56;;;;;;;17.17;10.27;;;6.40;50.20;;;;;;6209909;28;20253;-59
2022/01/31 11:41:03;;;;;;;16.70;5.63;;;6.50;50.20;;;;;;6227667;28;20194;-59
2022/01/31 11:44:33;;;;;;;9.37;5.27;;;6.70;49.20;;;;;;6247986;28;20254;-59
2022/01/31 11:47:36;;;;;;;11.40;5.53;;;6.60;49.10;;;;;;6247638;28;20278;-60
2022/01/31 11:50:47;;;;;;;12.90;6.13;;;6.80;48.90;;;;;;6264404;28;20191;-60
2022/01/31 11:53:48;;;;;;;11.20;5.57;;;6.60;47.90;;;;;;6248066;28;20191;-60
2022/01/31 11:56:52;;;;;;;10.33;5.60;;;6.30;49.40;;;;;;6222651;28;20202;-60
2022/01/31 12:00:12;;;;;;;9.63;4.50;;;6.40;47.90;;;;;;6239081;28;20199;-60
2022/01/31 12:03:17;;;;;;;8.97;4.00;;;6.40;48.80;;;;;;6244235;28;20183;-60
2022/01/31 12:06:27;;;;;;;5.93;4.50;;;6.50;48.10;;;;;;6257156;28;20202;-60
2022/01/31 12:09:30;;;;;;;14.20;4.93;;;6.70;47.80;;;;;;6248591;28;20202;-60
2022/01/31 12:12:55;;;;;;;7.87;3.90;;;6.60;47.20;;;;;;6231070;28;20206;-60
2022/01/31 12:16:11;;;;;;;8.27;4.43;;;6.50;48.10;;;;;;6242499;28;20343;-60
2022/01/31 12:22:47;;;;;;;10.60;4.60;;;6.30;48.70;;;;;;6236530;28;20205;-60
2022/01/31 12:25:48;;;;;;;9.33;4.20;;;6.50;47.40;;;;;;6241995;28;20187;-60
2022/01/31 12:28:55;;;;;;;10.77;4.00;;;6.50;46.80;;;;;;6242133;28;20224;-60
2022/01/31 12:32:16;;;;;;;6.63;3.60;;;6.70;46.60;;;;;;6238385;28;20195;-60
2022/01/31 12:35:39;;;;;;;8.17;3.40;;;6.60;46.20;;;;;;6219310;28;20204;-60
2022/01/31 12:38:40;;;;;;;6.00;3.20;;;6.70;45.70;;;;;;6241813;28;20271;-60
2022/01/31 12:41:40;;;;;;;7.87;3.80;;;6.60;45.40;;;;;;6247511;28;20182;-60
2022/01/31 12:44:45;;;;;;;6.97;3.60;;;6.60;47.00;;;;;;6245826;28;20209;-61
2022/01/31 12:48:08;;;;;;;7.30;3.80;;;6.70;45.20;;;;;;6256839;28;20187;-61
2022/01/31 12:51:14;;;;;;;6.50;3.30;;;6.70;46.20;;;;;;6242023;28;20237;-60
2022/01/31 12:54:21;;;;;;;8.20;3.23;;;6.90;46.00;;;;;;6217906;28;20195;-60
2022/01/31 12:57:22;;;;;;;4.97;3.37;;;7.10;45.00;;;;;;6263282;28;20264;-60
2022/01/31 13:00:41;;;;;;;8.50;3.77;;;7.30;45.10;;;;;;6220274;28;20286;-60
2022/01/31 13:03:45;;;;;;;11.50;3.40;;;7.70;43.60;;;;;;6214221;28;20200;-60
2022/01/31 13:06:46;;;;;;;7.53;4.10;;;8.00;42.30;;;;;;6246773;28;20217;-60
2022/01/31 13:09:47;;;;;;;9.73;3.50;;;8.30;43.00;;;;;;6229334;28;20199;-61
2022/01/31 13:13:03;;;;;;;7.57;3.70;;;8.50;41.30;;;;;;6249078;28;20201;-60
2022/01/31 13:16:05;;;;;;;7.57;4.03;;;8.70;42.10;;;;;;6246346;28;20249;-60
2022/01/31 13:19:19;;;;;;;8.47;3.73;;;8.70;41.80;;;;;;6200649;28;20249;-60
2022/01/31 13:22:39;;;;;;;6.57;3.70;;;8.60;41.40;;;;;;6240146;28;20273;-60
2022/01/31 13:25:40;;;;;;;7.60;3.87;;;8.40;41.40;;;;;;6249302;28;20183;-61
2022/01/31 13:28:50;;;;;;;9.60;3.50;;;8.10;41.60;;;;;;6240641;28;20214;-60
2022/01/31 13:31:50;;;;;;;6.70;3.67;;;8.20;42.10;;;;;;6252683;28;20282;-60
2022/01/31 13:34:55;;;;;;;7.10;3.33;;;8.10;42.70;;;;;;6232016;28;20194;-60
2022/01/31 13:38:07;;;;;;;6.80;3.63;;;8.10;42.80;;;;;;6252038;28;20211;-60
2022/01/31 13:41:07;;;;;;;5.00;3.33;;;8.30;42.10;;;;;;6233908;28;20195;-60
2022/01/31 13:44:08;;;;;;;7.37;4.17;;;8.30;42.00;;;;;;6247148;28;20221;-60
2022/01/31 13:47:09;;;;;;;6.50;4.03;;;8.00;43.00;;;;;;6249744;28;20207;-60
2022/01/31 13:50:40;;;;;;;7.50;3.47;;;8.10;43.00;;;;;;6240823;28;20195;-60
2022/01/31 13:53:42;;;;;;;9.73;3.73;;;8.30;42.00;;;;;;6244905;28;20194;-60
2022/01/31 13:56:55;;;;;;;6.63;4.07;;;8.30;42.20;;;;;;6265087;28;20201;-59
2022/01/31 13:59:55;;;;;;;5.17;3.20;;;8.20;41.70;;;;;;6231068;28;20203;-60
2022/01/31 14:03:10;;;;;;;9.67;4.20;;;8.60;41.60;;;;;;6241398;28;20186;-60
2022/01/31 14:06:12;;;;;;;8.63;3.43;;;8.80;41.20;;;;;;6244894;28;20184;-60
2022/01/31 14:09:13;;;;;;;8.90;3.70;;;8.80;40.60;;;;;;6238205;28;20222;-60
2022/01/31 14:12:15;;;;;;;5.90;3.47;;;9.00;40.20;;;;;;6235206;28;20194;-60
2022/01/31 14:15:18;;;;;;;6.57;3.30;;;9.30;40.20;;;;;;6272360;28;20266;-60
2022/01/31 14:18:20;;;;;;;9.07;3.73;;;9.60;39.20;;;;;;6266326;28;20244;-60
2022/01/31 14:21:22;;;;;;;8.17;3.77;;;9.80;39.20;;;;;;6235230;28;20199;-60
2022/01/31 14:24:28;;;;;;;7.70;3.90;;;10.40;38.50;;;;;;6231636;28;20334;-60
2022/01/31 14:27:28;;;;;;;6.60;3.87;;;11.20;36.20;;;;;;6251766;28;20207;-59
2022/01/31 14:30:29;;;;;;;6.93;3.67;;;11.30;35.70;;;;;;6243164;28;20646;-59
2022/01/31 14:33:31;;;;;;;6.30;3.90;;;11.30;35.20;;;;;;6258060;28;20198;-60
2022/01/31 14:36:40;;;;;;;11.00;3.93;;;11.90;34.80;;;;;;6258950;28;20654;-60
2022/01/31 14:39:51;;;;;;;6.33;3.60;;;12.10;34.10;;;;;;6262440;28;20211;-60
2022/01/31 14:43:12;;;;;;;8.27;4.73;;;12.20;33.70;;;;;;6243044;28;20187;-61
2022/01/31 14:49:33;;;;;;;9.53;4.43;;;12.00;34.10;;;;;;6238671;28;20196;-60
2022/01/31 14:52:34;;;;;;;9.40;4.67;;;12.30;33.50;;;;;;6236057;28;20198;-59
2022/01/31 14:55:39;;;;;;;13.40;4.43;;;12.50;33.40;;;;;;6252311;28;20198;-60
2022/01/31 14:58:40;;;;;;;7.63;4.20;;;12.80;33.10;;;;;;6234520;28;20211;-60
2022/01/31 15:01:41;;;;;;;7.33;3.77;;;13.50;32.40;;;;;;6239708;28;20214;-60
2022/01/31 15:04:42;;;;;;;8.67;4.10;;;13.60;31.40;;;;;;6249257;28;20194;-60
2022/01/31 15:07:44;;;;;;;7.83;4.03;;;12.70;32.10;;;;;;6224085;28;20210;-60
2022/01/31 15:10:45;;;;;;;6.30;4.00;;;11.80;34.00;;;;;;6234159;28;20283;-60
2022/01/31 15:13:47;;;;;;;14.07;4.80;;;10.80;36.10;;;;;;6246614;28;20206;-60
2022/01/31 15:16:48;;;;;;;9.47;4.57;;;10.10;37.80;;;;;;6243437;28;20254;-60
2022/01/31 15:19:49;;;;;;;7.83;3.73;;;9.30;40.10;;;;;;6228878;28;20213;-60
2022/01/31 15:22:54;;;;;;;6.63;3.40;;;8.80;41.50;;;;;;6225059;28;20221;-60
2022/01/31 15:25:54;;;;;;;7.10;3.30;;;8.50;42.80;;;;;;6211676;28;20214;-60
2022/01/31 15:28:57;;;;;;;6.87;2.90;;;8.20;42.70;;;;;;6248444;28;20208;-60
2022/01/31 15:32:00;;;;;;;4.67;1.67;;;7.80;44.80;;;;;;6240996;28;20199;-60
2022/01/31 15:35:02;;;;;;;3.17;1.00;;;7.50;47.70;;;;;;6220201;28;20195;-60
2022/01/31 15:38:03;;;;;;;1.60;0.90;;;7.20;49.20;;;;;;6260083;28;20223;-60
2022/01/31 15:41:04;;;;;;;1.53;0.77;;;6.90;50.40;;;;;;6237889;28;20284;-61
2022/01/31 15:44:14;;;;;;;1.20;0.90;;;6.70;51.40;;;;;;6240573;28;20195;-59
2022/01/31 15:47:15;;;;;;;3.77;0.80;;;6.50;52.30;;;;;;6235200;28;20305;-60
2022/01/31 15:50:15;;;;;;;0.63;0.50;;;6.30;53.00;;;;;;6247281;28;20243;-60
2022/01/31 15:53:16;;;;;;;0.90;0.70;;;6.30;53.40;;;;;;6247637;28;20206;-61
2022/01/31 15:56:17;;;;;;;1.63;1.00;;;6.30;53.70;;;;;;6238998;28;20257;-61
2022/01/31 15:59:18;;;;;;;0.93;0.77;;;6.10;54.50;;;;;;6235118;28;20312;-59
2022/01/31 16:02:19;;;;;;;0.93;0.57;;;6.10;54.70;;;;;;6229582;28;20237;-59
2022/01/31 16:05:20;;;;;;;0.60;0.60;;;5.90;55.30;;;;;;6244033;28;20244;-60
2022/01/31 16:08:21;;;;;;;0.30;0.30;;;5.80;55.90;;;;;;6232326;28;20212;-60
2022/01/31 16:11:23;;;;;;;1.03;0.60;;;5.80;56.10;;;;;;6242946;28;20209;-61
2022/01/31 16:14:23;;;;;;;2.13;0.80;;;5.80;56.00;;;;;;6233699;28;20208;-61
2022/01/31 16:17:25;;;;;;;0.80;0.80;;;5.70;56.20;;;;;;6226658;28;20241;-61
2022/01/31 16:20:28;;;;;;;1.97;1.03;;;5.60;56.40;;;;;;6225894;28;20212;-61
2022/01/31 16:23:29;;;;;;;0.70;0.60;;;5.50;56.90;;;;;;6248852;28;20224;-61
2022/01/31 16:26:30;;;;;;;0.93;0.73;;;5.50;56.90;;;;;;6213214;28;20285;-61
2022/01/31 16:29:31;;;;;;;1.20;0.87;;;5.30;57.30;;;;;;6244056;28;20204;-61
2022/01/31 16:32:32;;;;;;;1.27;0.77;;;5.30;57.50;;;;;;6216766;28;20201;-61
2022/01/31 16:35:33;;;;;;;2.17;0.97;;;5.20;57.60;;;;;;6230501;28;20197;-62